Česky Dansk Deutsch English Español Suomi Français Magyar Italiano Nederlands norsk Polski Português svenska Türkçe

 

Het Weer

Belo Horizonte (Brazilië)

04:00, 28 juli 2016 (GMT)

NWNNE
WE
SWSSE
Home            
Belo Horizonte Belo Horizonte Aeroporto Barbacena Juiz De Fora Resende Galeao Afonsos Aeroporto Rio De Janeiro-Santa Cruz Ab Campos Rio De Janeiro Aeroporto Guaratingueta Rio / Jacarepagua Pocos De Caldas Macae Montes Claros S. P. Aldeia Aerodrome Vitoria Aeroporto Sao Jose Dos Campo Pirassununga Uberaba Leite Lopes / Ribeir Uberlandia Guarulhos Civ / Mil

Om een weerknop op uw website of weblog te plaatsen, copieer onderstaande code en plak die in uw pagina. In het eerste vakje staat HTML-code, in het tweede vakje UBB-code.


Add to Google

Details

Wind speed:1 bf, 2 kn, 1.0 m/s, 2.3 miles/h, 3.7 km/h
Wind direction:SE, 140°
Visibility:Greater than 10000 m, 10 km, 32800 ft, 6.2 miles
Clouds:CAVOC
Temperature:19°C, 66°F
Dew-point:9°C, 48°F
Atmospheric pressure:1021 hPa, 765.8 mmHg, 30.15 inHg, 1.008 atm
Relative humidity:52.2 %
METAR:SBCF 280400Z 14002KT CAVOK 19/09 Q1021

Snelkoppelingen

Actuele weersinformatie van de hele wereld. Voeg locaties toe met het plus (+) symbool. Deze snelkoppelingen kunnen worden toegevoegd aan Google.

Lid van de Technetium groep

website free tracking
StatCounter NetStat W3C Validator

10-08-2020 04:51:01
astro.technetium.be money.technetium.be phote.technetium.be tafeltennistafel.technetium.be www.ligfiets.net